createdAt,value
2022-10-22T00:00:08.754Z,70.85
2022-10-22T00:02:36.098Z,70.83
2022-10-22T00:05:05.385Z,70.79
2022-10-22T00:07:32.652Z,70.62
2022-10-22T00:09:59.203Z,70.35
2022-10-22T00:12:26.513Z,70.44
2022-10-22T00:14:53.220Z,69.98
2022-10-22T00:17:20.503Z,70.15
2022-10-22T00:19:47.974Z,70.25
2022-10-22T00:22:17.352Z,70.27
2022-10-22T00:24:43.943Z,70.21
2022-10-22T00:27:12.508Z,70.35
2022-10-22T00:29:39.456Z,70.17
2022-10-22T00:32:06.533Z,70.04
2022-10-22T00:34:36.689Z,70.40
2022-10-22T00:37:03.528Z,70.33
2022-10-22T00:39:31.519Z,69.96
2022-10-22T00:41:59.311Z,70.12
2022-10-22T00:45:08.677Z,70.14
2022-10-22T00:47:39.462Z,69.97
2022-10-22T00:50:11.701Z,70.12
2022-10-22T00:52:39.419Z,69.59
2022-10-22T00:55:09.694Z,69.64
2022-10-22T00:57:36.949Z,69.29
2022-10-22T01:00:06.068Z,69.39
2022-10-22T01:02:32.993Z,69.13
2022-10-22T01:04:59.565Z,69.31
2022-10-22T01:07:26.940Z,68.74
2022-10-22T01:10:04.389Z,68.88
2022-10-22T01:12:43.059Z,70.04
2022-10-22T01:15:19.184Z,70.24
2022-10-22T01:17:55.762Z,70.23
2022-10-22T01:20:39.907Z,70.47
2022-10-22T01:23:21.836Z,70.19
2022-10-22T01:25:54.624Z,70.18
2022-10-22T01:28:37.655Z,70.29
2022-10-22T01:31:06.265Z,69.56
2022-10-22T01:33:33.660Z,69.92
2022-10-22T01:36:01.858Z,69.84
2022-10-22T01:38:29.701Z,69.74
2022-10-22T01:40:57.299Z,70.12
2022-10-22T01:43:24.026Z,70.08
2022-10-22T01:45:58.091Z,70.17
2022-10-22T01:48:36.666Z,70.10
2022-10-22T01:51:19.088Z,70.03
2022-10-22T01:53:53.973Z,70.44
2022-10-22T01:56:36.589Z,70.44
2022-10-22T01:59:12.864Z,70.28
2022-10-22T02:01:50.840Z,70.66
2022-10-22T02:04:22.840Z,70.47
2022-10-22T02:06:53.723Z,70.25
2022-10-22T02:09:24.061Z,70.60
2022-10-22T02:11:51.709Z,70.37
2022-10-22T02:14:20.247Z,70.69
2022-10-22T02:16:50.477Z,71.09
2022-10-22T02:19:22.923Z,71.36
2022-10-22T02:21:49.622Z,71.55
2022-10-22T02:24:17.016Z,70.67
2022-10-22T02:26:51.307Z,70.55
2022-10-22T02:29:25.620Z,70.86
2022-10-22T02:31:58.407Z,71.47
2022-10-22T02:34:31.598Z,71.67
2022-10-22T02:37:00.018Z,71.21
2022-10-22T02:39:27.307Z,70.98
2022-10-22T02:41:54.292Z,71.00
2022-10-22T02:44:22.399Z,71.60
2022-10-22T02:46:49.352Z,71.17
2022-10-22T02:49:17.826Z,71.00
2022-10-22T02:51:44.615Z,71.67
2022-10-22T02:54:11.301Z,72.08
2022-10-22T02:56:38.200Z,71.55
2022-10-22T02:59:04.768Z,72.06
2022-10-22T03:01:31.350Z,72.87
2022-10-22T03:03:57.933Z,72.46
2022-10-22T03:08:52.760Z,72.83
2022-10-22T03:11:19.656Z,73.55
2022-10-22T03:13:46.485Z,72.32
2022-10-22T03:16:13.691Z,72.22
2022-10-22T03:18:40.286Z,72.76
2022-10-22T03:21:13.734Z,72.86
2022-10-22T03:23:43.476Z,72.66
2022-10-22T03:26:13.080Z,73.16
2022-10-22T03:28:41.510Z,73.86
2022-10-22T03:31:08.264Z,73.54
2022-10-22T03:33:34.887Z,73.36
2022-10-22T03:36:02.080Z,73.47
2022-10-22T03:38:30.012Z,73.38
2022-10-22T03:40:58.592Z,73.00
2022-10-22T03:43:25.290Z,72.92
2022-10-22T03:45:52.780Z,72.66
2022-10-22T03:48:19.457Z,72.14
2022-10-22T03:50:47.859Z,72.79
2022-10-22T03:53:14.858Z,72.56
2022-10-22T03:55:42.288Z,72.64
2022-10-22T03:58:10.920Z,72.26
2022-10-22T04:00:37.540Z,72.25
2022-10-22T04:03:04.487Z,72.58
2022-10-22T04:05:32.665Z,73.08
2022-10-22T04:07:59.529Z,72.87
2022-10-22T04:10:26.561Z,72.58
2022-10-22T04:12:53.096Z,73.22
2022-10-22T04:15:21.595Z,73.71
2022-10-22T04:17:49.139Z,73.67
2022-10-22T04:20:16.105Z,72.97
2022-10-22T04:22:43.572Z,72.53
2022-10-22T04:25:10.692Z,72.75
2022-10-22T04:27:38.082Z,72.79
2022-10-22T04:30:06.152Z,72.30
2022-10-22T04:32:34.376Z,71.93
2022-10-22T04:35:01.264Z,72.07
2022-10-22T04:37:29.069Z,72.56
2022-10-22T04:39:58.101Z,72.63
2022-10-22T04:42:27.393Z,72.12
2022-10-22T04:44:54.275Z,71.85
2022-10-22T04:47:21.091Z,72.81
2022-10-22T04:49:49.160Z,73.15
2022-10-22T04:52:15.698Z,72.86
2022-10-22T04:54:42.519Z,72.43
2022-10-22T04:57:09.032Z,73.74
2022-10-22T04:59:35.846Z,72.80
2022-10-22T05:02:02.390Z,73.17
2022-10-22T05:04:29.049Z,73.42
2022-10-22T05:06:57.192Z,73.30
2022-10-22T05:09:23.745Z,72.70
2022-10-22T05:11:52.513Z,72.75
2022-10-22T05:14:21.078Z,72.84
2022-10-22T05:16:48.442Z,73.40
2022-10-22T05:19:19.256Z,73.05
2022-10-22T05:21:47.416Z,72.64
2022-10-22T05:24:15.810Z,72.91
2022-10-22T05:26:42.561Z,72.82
2022-10-22T05:29:09.138Z,73.35
2022-10-22T05:31:35.797Z,72.90
2022-10-22T05:34:02.460Z,73.18
2022-10-22T05:36:28.995Z,73.23
2022-10-22T05:38:56.963Z,73.77
2022-10-22T05:41:27.285Z,74.39
2022-10-22T05:43:55.786Z,73.68
2022-10-22T05:46:24.670Z,73.25
2022-10-22T05:48:53.607Z,74.17
2022-10-22T05:51:20.841Z,73.89
2022-10-22T05:53:51.966Z,74.31
2022-10-22T05:56:18.756Z,73.77
2022-10-22T05:58:47.250Z,73.55
2022-10-22T06:01:17.923Z,73.79
2022-10-22T06:03:45.476Z,73.34
2022-10-22T06:06:19.528Z,72.87
2022-10-22T06:08:47.344Z,73.36
2022-10-22T06:11:14.869Z,72.87
2022-10-22T06:13:41.811Z,72.92
2022-10-22T06:16:10.039Z,73.33
2022-10-22T06:18:36.618Z,73.75
2022-10-22T06:21:07.378Z,73.24
2022-10-22T06:23:34.496Z,72.99
2022-10-22T06:26:01.986Z,73.01
2022-10-22T06:28:29.103Z,72.18
2022-10-22T06:30:57.317Z,71.66
2022-10-22T06:33:25.313Z,71.35
2022-10-22T06:35:51.992Z,70.80
2022-10-22T06:38:19.194Z,70.57
2022-10-22T06:40:45.752Z,70.58
2022-10-22T06:43:13.070Z,70.29
2022-10-22T06:45:39.883Z,69.54
2022-10-22T06:48:07.298Z,69.32
2022-10-22T06:50:35.781Z,69.28
2022-10-22T06:53:04.985Z,69.13
2022-10-22T06:55:31.661Z,68.77
2022-10-22T06:57:58.164Z,69.04
2022-10-22T07:00:25.393Z,69.87
2022-10-22T07:02:54.327Z,69.74
2022-10-22T07:05:23.491Z,69.10
2022-10-22T07:07:52.184Z,68.04
2022-10-22T07:10:20.495Z,67.25
2022-10-22T07:12:47.069Z,66.20
2022-10-22T07:15:13.696Z,65.01
2022-10-22T07:17:42.492Z,64.38
2022-10-22T07:20:10.211Z,63.56
2022-10-22T07:22:36.722Z,62.75
2022-10-22T07:25:07.274Z,61.76
2022-10-22T07:27:34.084Z,59.43
2022-10-22T07:30:00.676Z,59.03
2022-10-22T07:32:27.243Z,58.65
2022-10-22T07:34:54.476Z,58.01
2022-10-22T07:37:21.094Z,56.31
2022-10-22T07:39:47.700Z,56.67
2022-10-22T07:42:16.440Z,57.48
2022-10-22T07:44:43.084Z,57.13
2022-10-22T07:47:09.716Z,56.83
2022-10-22T07:49:36.260Z,56.93
2022-10-22T07:52:03.626Z,57.57
2022-10-22T07:54:30.177Z,57.30
2022-10-22T07:56:56.965Z,56.78
2022-10-22T07:59:26.487Z,56.50
2022-10-22T08:01:53.130Z,55.79
2022-10-22T08:04:21.783Z,55.18
2022-10-22T08:06:48.412Z,55.12
2022-10-22T08:09:15.409Z,54.90
2022-10-22T08:11:42.401Z,54.94
2022-10-22T08:14:09.869Z,55.57
2022-10-22T08:16:37.935Z,55.96
2022-10-22T08:19:05.026Z,55.20
2022-10-22T08:21:32.746Z,55.99
2022-10-22T08:23:59.360Z,56.02
2022-10-22T08:26:26.226Z,57.60
2022-10-22T08:28:52.821Z,57.74
2022-10-22T08:31:19.412Z,57.68
2022-10-22T08:33:48.480Z,58.01
2022-10-22T08:36:15.674Z,58.11
2022-10-22T08:38:42.622Z,57.40
2022-10-22T08:41:12.853Z,57.91
2022-10-22T08:44:15.065Z,58.12
2022-10-22T08:46:54.291Z,57.42
2022-10-22T08:49:26.288Z,56.85
2022-10-22T08:51:53.263Z,56.83
2022-10-22T08:54:30.589Z,56.76
2022-10-22T08:57:10.040Z,57.00
2022-10-22T08:59:44.715Z,56.49
2022-10-22T09:02:25.179Z,56.04
2022-10-22T09:05:11.651Z,57.17
2022-10-22T09:07:43.310Z,56.77
2022-10-22T09:10:13.703Z,56.67
2022-10-22T09:12:43.619Z,56.26
2022-10-22T09:15:15.349Z,55.38
2022-10-22T09:17:56.841Z,54.13
2022-10-22T09:20:32.639Z,55.66
2022-10-22T09:23:12.734Z,54.01
2022-10-22T09:25:40.320Z,54.83
2022-10-22T09:28:09.300Z,55.68
2022-10-22T09:30:38.997Z,55.01
2022-10-22T09:33:13.159Z,54.11
2022-10-22T09:35:48.008Z,54.08
2022-10-22T09:38:16.328Z,54.21
2022-10-22T09:40:44.727Z,53.25
2022-10-22T09:43:13.596Z,53.64
2022-10-22T09:45:41.021Z,53.48
2022-10-22T09:48:18.612Z,54.14
2022-10-22T09:50:48.242Z,54.21
2022-10-22T09:53:20.052Z,53.83
2022-10-22T09:55:51.628Z,53.81
2022-10-22T09:58:19.193Z,54.45
2022-10-22T10:00:51.491Z,54.86
2022-10-22T10:03:19.630Z,54.66
2022-10-22T10:05:50.100Z,54.19
2022-10-22T10:08:18.375Z,54.09
2022-10-22T10:10:49.007Z,53.66
2022-10-22T10:13:30.795Z,54.24
2022-10-22T10:16:05.268Z,53.75
2022-10-22T10:18:43.982Z,53.69
2022-10-22T10:21:23.295Z,53.05
2022-10-22T10:24:00.358Z,53.08
2022-10-22T10:26:32.729Z,53.41
2022-10-22T10:29:15.233Z,53.25
2022-10-22T10:31:52.564Z,52.94
2022-10-22T10:34:29.903Z,52.63
2022-10-22T10:37:10.728Z,51.21
2022-10-22T10:39:52.215Z,51.21
2022-10-22T10:42:27.264Z,50.87
2022-10-22T10:45:07.839Z,49.41
2022-10-22T10:47:52.834Z,49.34
2022-10-22T10:50:27.165Z,49.63
2022-10-22T10:53:03.757Z,49.40
2022-10-22T10:55:33.923Z,48.80
2022-10-22T10:58:10.998Z,49.52
2022-10-22T11:00:47.474Z,49.05
2022-10-22T11:03:45.566Z,48.81
2022-10-22T11:06:15.833Z,49.32
2022-10-22T11:08:50.925Z,48.42
2022-10-22T11:11:22.900Z,48.72
2022-10-22T11:13:53.209Z,48.66
2022-10-22T11:16:24.908Z,48.76
2022-10-22T11:19:00.627Z,48.70
2022-10-22T11:21:32.346Z,49.67
2022-10-22T11:24:10.176Z,49.57
2022-10-22T11:26:44.233Z,49.25
2022-10-22T11:29:15.230Z,49.64
2022-10-22T11:31:42.924Z,48.92
2022-10-22T11:34:33.154Z,48.09
2022-10-22T11:37:01.456Z,48.24
2022-10-22T11:39:38.658Z,48.45
2022-10-22T11:42:09.179Z,48.43
2022-10-22T11:44:47.152Z,48.84
2022-10-22T11:47:19.097Z,48.63
2022-10-22T11:49:55.664Z,48.21
2022-10-22T11:52:26.229Z,49.31
2022-10-22T11:55:22.496Z,48.34
2022-10-22T11:57:49.109Z,47.77
2022-10-22T12:00:34.782Z,47.74
2022-10-22T12:03:15.445Z,48.36
2022-10-22T12:05:45.275Z,48.48
2022-10-22T12:08:26.299Z,48.73
2022-10-22T12:11:06.395Z,48.44
2022-10-22T12:13:53.142Z,47.28
2022-10-22T12:16:32.221Z,46.63
2022-10-22T12:19:15.368Z,46.13
2022-10-22T12:21:47.660Z,46.95
2022-10-22T12:24:17.029Z,46.84
2022-10-22T12:26:45.034Z,47.16
2022-10-22T12:29:14.080Z,46.93
2022-10-22T12:31:44.015Z,47.38
2022-10-22T12:34:16.004Z,47.45
2022-10-22T12:36:44.450Z,47.45
2022-10-22T12:39:14.164Z,46.62
2022-10-22T12:41:41.425Z,48.05
2022-10-22T12:44:12.232Z,47.02
2022-10-22T12:46:39.429Z,47.25
2022-10-22T12:49:13.722Z,47.37
2022-10-22T12:51:40.385Z,46.52
2022-10-22T12:54:15.190Z,48.24
2022-10-22T12:56:42.859Z,47.11
2022-10-22T12:59:17.895Z,47.03
2022-10-22T13:01:44.769Z,46.99
2022-10-22T13:04:33.599Z,45.95
2022-10-22T13:07:19.759Z,46.92
2022-10-22T13:09:58.066Z,47.15
2022-10-22T13:12:25.973Z,46.36
2022-10-22T13:14:56.426Z,46.27
2022-10-22T13:17:39.931Z,45.74
2022-10-22T13:20:17.831Z,45.88
2022-10-22T13:22:54.562Z,45.55
2022-10-22T13:25:26.392Z,44.91
2022-10-22T13:27:56.345Z,45.78
2022-10-22T13:30:28.191Z,45.14
2022-10-22T13:32:57.284Z,45.63
2022-10-22T13:35:26.067Z,45.21
2022-10-22T13:37:53.392Z,45.51
2022-10-22T13:40:20.700Z,45.87
2022-10-22T13:42:47.512Z,45.24
2022-10-22T13:45:14.907Z,45.70
2022-10-22T13:47:46.565Z,45.17
2022-10-22T13:50:15.292Z,44.96
2022-10-22T13:52:45.394Z,45.44
2022-10-22T13:55:18.290Z,46.07
2022-10-22T13:57:45.484Z,46.30
2022-10-22T14:00:14.745Z,45.86
2022-10-22T14:02:43.268Z,46.09
2022-10-22T14:05:10.736Z,45.66
2022-10-22T14:07:39.376Z,46.79
2022-10-22T14:10:18.291Z,46.38
2022-10-22T14:12:47.338Z,46.82
2022-10-22T14:15:18.890Z,46.67
2022-10-22T14:17:51.848Z,47.06
2022-10-22T14:20:22.069Z,46.48
2022-10-22T14:22:51.034Z,46.46
2022-10-22T14:25:20.039Z,46.33
2022-10-22T14:27:47.872Z,46.39
2022-10-22T14:30:19.685Z,46.08
2022-10-22T14:32:48.642Z,46.73
2022-10-22T14:35:17.738Z,47.10
2022-10-22T14:37:44.609Z,47.17
2022-10-22T14:40:15.978Z,47.25
2022-10-22T14:42:44.755Z,47.71
2022-10-22T14:45:16.539Z,47.69
2022-10-22T14:47:45.832Z,48.03
2022-10-22T14:50:16.042Z,48.37
2022-10-22T14:52:45.011Z,48.63
2022-10-22T14:55:13.626Z,49.08
2022-10-22T14:57:41.261Z,48.86
2022-10-22T15:00:11.783Z,48.89
2022-10-22T15:02:38.398Z,48.95
2022-10-22T15:05:07.466Z,49.05
2022-10-22T15:07:36.573Z,49.11
2022-10-22T15:10:05.221Z,49.35
2022-10-22T15:12:34.609Z,49.67
2022-10-22T15:15:02.300Z,49.92
2022-10-22T15:17:29.332Z,50.00
2022-10-22T15:19:55.962Z,49.84
2022-10-22T15:22:23.218Z,50.04
2022-10-22T15:24:52.041Z,49.46
2022-10-22T15:27:21.464Z,50.42
2022-10-22T15:29:48.399Z,50.78
2022-10-22T15:32:15.054Z,51.15
2022-10-22T15:34:41.697Z,51.47
2022-10-22T15:37:11.671Z,51.68
2022-10-22T15:39:39.418Z,52.13
2022-10-22T15:42:07.829Z,52.54
2022-10-22T15:44:34.854Z,52.97
2022-10-22T15:47:04.067Z,53.24
2022-10-22T15:49:30.668Z,53.75
2022-10-22T15:51:57.817Z,54.18
2022-10-22T15:54:26.277Z,54.51
2022-10-22T15:56:52.820Z,54.72
2022-10-22T15:59:21.626Z,55.43
2022-10-22T16:01:48.489Z,55.48
2022-10-22T16:04:15.731Z,56.13
2022-10-22T16:06:44.143Z,56.49
2022-10-22T16:09:12.712Z,57.15
2022-10-22T16:11:41.246Z,57.37
2022-10-22T16:14:11.070Z,57.78
2022-10-22T16:16:43.964Z,57.65
2022-10-22T16:19:11.689Z,58.05
2022-10-22T16:21:38.547Z,58.27
2022-10-22T16:24:06.635Z,58.44
2022-10-22T16:26:33.816Z,58.38
2022-10-22T16:29:00.343Z,58.41
2022-10-22T16:31:26.968Z,59.00
2022-10-22T16:33:55.219Z,59.05
2022-10-22T16:36:22.541Z,59.53
2022-10-22T16:38:49.625Z,59.93
2022-10-22T16:41:18.011Z,59.91
2022-10-22T16:43:46.321Z,60.18
2022-10-22T16:46:13.496Z,60.13
2022-10-22T16:48:43.963Z,60.34
2022-10-22T16:51:14.807Z,60.58
2022-10-22T16:53:44.204Z,60.80
2022-10-22T16:56:13.413Z,60.88
2022-10-22T16:58:44.546Z,60.76
2022-10-22T17:01:11.420Z,61.20
2022-10-22T17:03:38.659Z,60.93
2022-10-22T17:06:06.573Z,60.59
2022-10-22T17:08:37.071Z,61.17
2022-10-22T17:11:07.998Z,61.26
2022-10-22T17:13:35.281Z,61.54
2022-10-22T17:16:03.164Z,61.44
2022-10-22T17:18:30.043Z,61.31
2022-10-22T17:20:56.787Z,61.41
2022-10-22T17:23:26.004Z,61.37
2022-10-22T17:25:59.970Z,61.84
2022-10-22T17:28:26.969Z,61.60
2022-10-22T17:31:02.917Z,61.67
2022-10-22T17:33:29.518Z,62.25
2022-10-22T17:35:56.284Z,61.89
2022-10-22T17:38:24.358Z,62.37
2022-10-22T17:40:51.063Z,62.12
2022-10-22T17:43:19.099Z,61.82
2022-10-22T17:45:45.637Z,62.27
2022-10-22T17:48:12.338Z,62.50
2022-10-22T17:50:48.162Z,62.42
2022-10-22T17:53:17.454Z,62.37
2022-10-22T17:55:44.089Z,62.35
2022-10-22T17:58:15.812Z,62.55
2022-10-22T18:00:44.137Z,62.49
2022-10-22T18:03:10.849Z,62.20
2022-10-22T18:05:37.442Z,62.36
2022-10-22T18:08:06.967Z,62.06
2022-10-22T18:10:39.793Z,62.46
2022-10-22T18:13:07.027Z,62.94
2022-10-22T18:15:33.563Z,62.33
2022-10-22T18:18:01.580Z,62.65
2022-10-22T18:20:28.265Z,62.12
2022-10-22T18:22:55.936Z,62.20
2022-10-22T18:25:22.843Z,62.21
2022-10-22T18:27:49.999Z,62.27
2022-10-22T18:30:16.885Z,62.18
2022-10-22T18:32:44.596Z,62.38
2022-10-22T18:35:12.689Z,61.97
2022-10-22T18:37:39.645Z,61.36
2022-10-22T18:40:10.415Z,61.43
2022-10-22T18:42:39.802Z,61.77
2022-10-22T18:45:07.618Z,61.47
2022-10-22T18:47:34.188Z,61.67
2022-10-22T18:50:01.038Z,61.65
2022-10-22T18:52:29.248Z,61.48
2022-10-22T18:54:56.143Z,61.84
2022-10-22T18:57:22.669Z,61.74
2022-10-22T18:59:49.511Z,61.48
2022-10-22T19:02:16.948Z,61.44
2022-10-22T19:04:44.106Z,61.42
2022-10-22T19:07:11.186Z,61.45
2022-10-22T19:09:40.059Z,61.69
2022-10-22T19:12:09.237Z,61.40
2022-10-22T19:14:36.609Z,61.15
2022-10-22T19:17:03.848Z,61.38
2022-10-22T19:19:30.697Z,61.02
2022-10-22T19:21:57.482Z,61.49
2022-10-22T19:24:24.060Z,61.57
2022-10-22T19:26:52.529Z,62.19
2022-10-22T19:29:20.945Z,62.40
2022-10-22T19:31:47.599Z,62.15
2022-10-22T19:34:17.425Z,62.09
2022-10-22T19:36:44.409Z,62.21
2022-10-22T19:39:15.233Z,63.14
2022-10-22T19:41:42.376Z,62.77
2022-10-22T19:44:10.579Z,62.38
2022-10-22T19:46:38.453Z,62.51
2022-10-22T19:49:05.621Z,62.64
2022-10-22T19:51:32.853Z,62.93
2022-10-22T19:54:01.577Z,62.86
2022-10-22T19:56:29.016Z,63.17
2022-10-22T19:58:55.621Z,63.48
2022-10-22T20:01:24.711Z,63.40
2022-10-22T20:03:51.585Z,63.41
2022-10-22T20:06:19.589Z,63.61
2022-10-22T20:08:46.524Z,63.53
2022-10-22T20:11:17.655Z,63.22
2022-10-22T20:13:46.721Z,63.17
2022-10-22T20:16:18.152Z,63.77
2022-10-22T20:18:46.459Z,63.23
2022-10-22T20:21:15.873Z,63.63
2022-10-22T20:23:46.725Z,63.38
2022-10-22T20:26:13.425Z,63.82
2022-10-22T20:28:40.364Z,63.63
2022-10-22T20:31:11.008Z,63.98
2022-10-22T20:33:37.897Z,64.33
2022-10-22T20:36:09.048Z,63.94
2022-10-22T20:41:06.111Z,63.74
2022-10-22T20:43:33.195Z,63.86
2022-10-22T20:46:00.133Z,64.19
2022-10-22T20:48:28.581Z,63.91
2022-10-22T20:50:55.505Z,64.38
2022-10-22T20:53:24.278Z,64.68
2022-10-22T20:55:53.178Z,64.16
2022-10-22T20:58:23.331Z,64.38
2022-10-22T21:00:52.772Z,64.25
2022-10-22T21:03:19.473Z,64.45
2022-10-22T21:05:46.204Z,64.51
2022-10-22T21:08:12.770Z,64.77
2022-10-22T21:10:40.988Z,64.63
2022-10-22T21:13:10.213Z,64.58
2022-10-22T21:15:37.044Z,64.43
2022-10-22T21:18:04.279Z,64.94
2022-10-22T21:20:30.841Z,65.05
2022-10-22T21:22:57.479Z,65.04
2022-10-22T21:25:23.997Z,64.63
2022-10-22T21:27:53.314Z,65.16
2022-10-22T21:30:21.158Z,65.18
2022-10-22T21:32:47.709Z,65.53
2022-10-22T21:35:14.818Z,65.03
2022-10-22T21:37:41.709Z,64.86
2022-10-22T21:40:10.430Z,64.42
2022-10-22T21:42:36.995Z,65.23
2022-10-22T21:45:12.381Z,65.23
2022-10-22T21:47:42.884Z,64.81
2022-10-22T21:50:09.987Z,65.06
2022-10-22T21:52:36.943Z,64.74
2022-10-22T21:55:15.857Z,64.89
2022-10-22T21:57:43.723Z,65.01
2022-10-22T22:00:13.848Z,64.43
2022-10-22T22:02:41.066Z,64.82
2022-10-22T22:05:08.427Z,64.33
2022-10-22T22:07:35.751Z,64.52
2022-10-22T22:10:02.582Z,64.67
2022-10-22T22:12:29.202Z,65.01
2022-10-22T22:14:55.834Z,64.39
2022-10-22T22:17:24.017Z,64.43
2022-10-22T22:19:50.521Z,64.32
2022-10-22T22:22:18.683Z,64.60
2022-10-22T22:24:45.320Z,64.44
2022-10-22T22:27:11.851Z,64.62
2022-10-22T22:29:38.437Z,64.58
2022-10-22T22:32:05.414Z,64.63
2022-10-22T22:34:33.301Z,64.61
2022-10-22T22:36:59.976Z,65.01
2022-10-22T22:39:26.548Z,64.81
2022-10-22T22:41:53.319Z,64.71
2022-10-22T22:44:20.649Z,64.54
2022-10-22T22:46:47.200Z,64.60
2022-10-22T22:49:13.975Z,64.79
2022-10-22T22:51:41.962Z,64.54
2022-10-22T22:54:09.916Z,64.27
2022-10-22T22:56:38.091Z,65.01
2022-10-22T22:59:05.837Z,64.45
2022-10-22T23:01:34.619Z,64.24
2022-10-22T23:04:04.573Z,64.16
2022-10-22T23:06:33.636Z,64.31
2022-10-22T23:09:03.914Z,64.68
2022-10-22T23:11:30.926Z,64.19
2022-10-22T23:13:58.873Z,64.13
2022-10-22T23:16:28.390Z,64.02
2022-10-22T23:18:56.314Z,64.27
2022-10-22T23:21:25.703Z,64.15
2022-10-22T23:23:56.092Z,63.92
2022-10-22T23:26:27.555Z,64.29
2022-10-22T23:28:54.435Z,63.86
2022-10-22T23:31:21.702Z,64.16
2022-10-22T23:33:49.760Z,64.10
2022-10-22T23:36:16.536Z,64.25
2022-10-22T23:38:43.151Z,63.87
2022-10-22T23:41:09.848Z,64.66
2022-10-22T23:43:38.567Z,64.69
2022-10-22T23:46:06.678Z,65.11
2022-10-22T23:48:36.102Z,65.00
2022-10-22T23:51:06.611Z,64.85
2022-10-22T23:53:33.262Z,64.93
2022-10-22T23:56:04.495Z,65.28
2022-10-22T23:58:31.115Z,65.06
